Time;durP1;ratioP1;P1;durP2;ratioP2;P2;SDS_P1;SDS_P2;PMS_P1;PMS_P2;Temp;Humidity;BMP_temperature;BMP_pressure;BME280_temperature;BME280_humidity;BME280_pressure;Samples;Min_cycle;Max_cycle;Signal;HPM_P1;HPM_P2
2023/12/16 00:02:05;;;;;;;8.57;5.60;;;4.30;99.90;;;;;;5194096;28;20029;-36
2023/12/16 00:04:37;;;;;;;7.78;4.97;;;4.30;99.90;;;;;;5193353;28;20033;-36
2023/12/16 00:07:09;;;;;;;7.22;4.50;;;4.30;89.10;;;;;;5197344;28;20022;-34
2023/12/16 00:09:40;;;;;;;10.45;6.07;;;4.30;1.00;;;;;;5196254;28;20088;-34
2023/12/16 00:12:11;;;;;;;8.02;4.95;;;4.30;99.90;;;;;;5196736;28;20033;-34
2023/12/16 00:14:42;;;;;;;9.25;5.00;;;4.30;48.30;;;;;;5182016;28;20033;-34
2023/12/16 00:17:16;;;;;;;11.20;5.75;;;4.30;1.00;;;;;;5193461;28;20026;-35
2023/12/16 00:19:47;;;;;;;8.40;5.07;;;4.40;1.00;;;;;;5194076;28;20047;-36
2023/12/16 00:22:18;;;;;;;10.95;5.72;;;4.40;1.00;;;;;;5196023;28;20041;-34
2023/12/16 00:24:52;;;;;;;9.63;4.95;;;4.40;1.00;;;;;;5180989;28;20040;-34
2023/12/16 00:27:26;;;;;;;7.53;4.25;;;4.40;1.00;;;;;;5187605;28;20029;-36
2023/12/16 00:30:00;;;;;;;7.63;5.07;;;4.40;1.00;;;;;;5194497;28;20045;-37
2023/12/16 00:32:33;;;;;;;10.27;5.35;;;4.40;1.00;;;;;;5187464;28;20052;-35
2023/12/16 00:35:08;;;;;;;9.75;5.15;;;4.50;99.90;;;;;;5192533;28;20033;-35
2023/12/16 00:37:39;;;;;;;;;;;4.40;1.00;;;;;;5179973;28;20045;-35
2023/12/16 00:40:13;;;;;;;9.45;5.20;;;4.50;99.90;;;;;;5194500;28;20232;-35
2023/12/16 00:42:47;;;;;;;8.77;5.32;;;4.40;99.90;;;;;;5189328;28;20037;-35
2023/12/16 00:45:23;;;;;;;8.60;4.13;;;4.50;99.90;;;;;;5189093;28;20240;-36
2023/12/16 00:47:54;;;;;;;8.02;5.32;;;4.40;99.90;;;;;;5196771;28;20039;-34
2023/12/16 00:50:25;;;;;;;6.97;4.38;;;4.40;99.90;;;;;;5201948;28;20033;-34
2023/12/16 00:53:01;;;;;;;9.95;5.00;;;4.40;99.90;;;;;;5191890;28;20277;-34
2023/12/16 00:55:33;;;;;;;8.68;4.90;;;4.40;1.00;;;;;;5193700;28;20030;-34
2023/12/16 00:58:04;;;;;;;8.80;5.47;;;4.30;1.00;;;;;;5193426;28;20033;-34
2023/12/16 01:00:35;;;;;;;8.48;5.30;;;4.40;99.90;;;;;;5176925;28;20478;-40
2023/12/16 01:03:12;;;;;;;11.02;5.10;;;4.40;99.90;;;;;;5191215;28;20158;-35
2023/12/16 01:05:46;;;;;;;8.15;5.15;;;4.40;99.90;;;;;;5206500;28;20229;-34
2023/12/16 01:08:17;;;;;;;;;;;4.40;99.90;;;;;;5194852;28;20048;-35
2023/12/16 01:10:52;;;;;;;7.85;4.40;;;4.40;99.90;;;;;;5197236;28;19909;-36
2023/12/16 01:13:23;;;;;;;9.18;5.50;;;4.40;99.90;;;;;;5190765;28;20040;-36
2023/12/16 01:15:57;;;;;;;9.93;6.00;;;4.40;99.90;;;;;;5177479;28;20604;-36
2023/12/16 01:18:28;;;;;;;10.30;5.50;;;4.40;99.90;;;;;;5185049;28;20045;-35
2023/12/16 01:21:06;;;;;;;9.00;5.90;;;4.30;99.90;;;;;;5196587;28;20028;-35
2023/12/16 01:23:39;;;;;;;10.55;5.60;;;4.30;1.00;;;;;;5196007;28;20322;-35
2023/12/16 01:26:11;;;;;;;10.07;6.10;;;4.30;99.90;;;;;;5183541;28;20064;-35
2023/12/16 01:28:42;;;;;;;10.10;5.88;;;4.30;1.00;;;;;;5185756;28;20030;-35
2023/12/16 01:31:16;;;;;;;13.75;6.93;;;4.20;1.00;;;;;;5186560;28;20218;-35
2023/12/16 01:33:49;;;;;;;9.20;5.87;;;4.20;1.00;;;;;;5199867;28;20366;-35
2023/12/16 01:36:22;;;;;;;8.88;5.20;;;4.20;1.00;;;;;;5223654;28;20652;-35
2023/12/16 01:38:53;;;;;;;11.13;6.28;;;4.30;1.00;;;;;;5198140;28;20044;-35
2023/12/16 01:41:27;;;;;;;9.45;5.57;;;4.30;1.00;;;;;;5167400;28;20064;-35
2023/12/16 01:43:58;;;;;;;11.30;5.85;;;4.40;1.00;;;;;;5196341;28;20044;-35
2023/12/16 01:46:35;;;;;;;11.52;5.55;;;4.40;1.00;;;;;;5196890;28;20060;-35
2023/12/16 01:49:08;;;;;;;8.75;5.82;;;4.30;1.00;;;;;;5199709;28;20229;-35
2023/12/16 01:51:43;;;;;;;10.00;5.47;;;4.30;1.00;;;;;;5183223;28;20384;-35
2023/12/16 01:54:16;;;;;;;;;;;4.30;1.00;;;;;;5182386;28;20308;-35
2023/12/16 01:56:58;;;;;;;7.70;5.00;;;4.40;99.90;;;;;;5201010;28;19909;-35
2023/12/16 01:59:29;;;;;;;8.38;5.32;;;4.40;99.90;;;;;;5184751;28;20034;-37
2023/12/16 02:02:01;;;;;;;9.32;5.82;;;4.30;1.00;;;;;;5193712;28;20033;-35
2023/12/16 02:04:39;;;;;;;9.73;5.35;;;4.40;99.90;;;;;;5199802;28;20474;-35
2023/12/16 02:07:10;;;;;;;6.70;4.78;;;4.40;99.90;;;;;;5201372;28;20344;-35
2023/12/16 02:09:45;;;;;;;8.02;5.10;;;4.50;99.90;;;;;;5187512;28;20073;-36
2023/12/16 02:12:19;;;;;;;9.23;5.75;;;4.50;99.90;;;;;;5180704;28;20227;-36
2023/12/16 02:14:52;;;;;;;7.05;4.82;;;4.60;99.90;;;;;;5187618;28;20270;-33
2023/12/16 02:17:24;;;;;;;12.40;6.17;;;4.60;99.90;;;;;;5179761;28;20036;-36
2023/12/16 02:19:55;;;;;;;9.10;5.50;;;4.60;99.90;;;;;;5195232;28;20595;-36
2023/12/16 02:22:34;;;;;;;8.20;5.13;;;4.60;99.90;;;;;;5199000;28;20280;-36
2023/12/16 02:25:10;;;;;;;8.68;5.18;;;4.60;99.90;;;;;;5195111;28;20040;-35
2023/12/16 02:27:41;;;;;;;9.30;5.03;;;4.60;99.90;;;;;;5183816;28;20048;-35
2023/12/16 02:30:15;;;;;;;9.65;6.10;;;4.60;99.90;;;;;;5197619;28;20040;-35
2023/12/16 02:32:47;;;;;;;9.43;5.75;;;4.50;99.90;;;;;;5198654;28;20037;-40
2023/12/16 02:35:18;;;;;;;7.90;5.10;;;4.50;99.90;;;;;;5185306;28;20517;-34
2023/12/16 02:37:50;;;;;;;5.80;4.55;;;4.50;99.90;;;;;;5195967;28;20040;-35
2023/12/16 02:40:21;;;;;;;10.35;5.10;;;4.50;99.90;;;;;;5198449;28;20025;-35
2023/12/16 02:42:55;;;;;;;7.25;5.18;;;4.60;99.90;;;;;;5196851;28;20230;-34
2023/12/16 02:45:26;;;;;;;7.80;5.07;;;4.60;99.90;;;;;;5188914;28;20033;-35
2023/12/16 02:47:57;;;;;;;9.45;5.63;;;4.60;99.90;;;;;;5189689;28;20291;-35
2023/12/16 02:50:29;;;;;;;9.02;4.95;;;4.70;99.90;;;;;;5199525;28;20033;-34
2023/12/16 02:53:02;;;;;;;8.35;5.10;;;4.80;99.90;;;;;;5196982;28;20025;-35
2023/12/16 02:55:34;;;;;;;7.32;4.75;;;4.80;99.90;;;;;;5196526;28;20589;-35
2023/12/16 02:58:05;;;;;;;7.53;5.15;;;4.80;99.90;;;;;;5183509;28;20044;-36
2023/12/16 03:00:36;;;;;;;6.95;4.53;;;4.80;99.90;;;;;;5192428;28;20481;-34
2023/12/16 03:03:08;;;;;;;6.90;4.15;;;4.80;99.90;;;;;;5197430;28;20381;-34
2023/12/16 03:05:39;;;;;;;7.32;4.90;;;4.70;99.90;;;;;;5196779;28;20379;-34
2023/12/16 03:08:13;;;;;;;8.50;5.35;;;4.70;99.90;;;;;;5185120;28;20132;-36
2023/12/16 03:10:44;;;;;;;7.97;5.18;;;4.70;99.90;;;;;;5185664;28;20041;-36
2023/12/16 03:13:15;;;;;;;7.78;4.90;;;4.60;99.90;;;;;;5196749;28;20048;-36
2023/12/16 03:15:46;;;;;;;10.00;5.53;;;4.60;99.90;;;;;;5186093;28;20038;-36
2023/12/16 03:18:18;;;;;;;7.88;4.88;;;4.60;99.90;;;;;;5182160;28;21377;-34
2023/12/16 03:20:49;;;;;;;7.28;4.32;;;4.60;99.90;;;;;;5182066;28;20033;-34
2023/12/16 03:23:20;;;;;;;7.90;4.85;;;4.50;99.90;;;;;;5186370;28;20245;-36
2023/12/16 03:25:54;;;;;;;7.25;4.40;;;4.50;99.90;;;;;;5195430;28;20045;-36
2023/12/16 03:28:25;;;;;;;6.93;4.60;;;4.60;99.90;;;;;;5198630;28;20322;-34
2023/12/16 03:30:57;;;;;;;7.85;5.20;;;4.60;99.90;;;;;;5191759;28;20045;-35
2023/12/16 03:33:28;;;;;;;6.78;4.45;;;4.70;99.90;;;;;;5195228;28;20043;-36
2023/12/16 03:35:59;;;;;;;6.28;3.90;;;4.70;99.90;;;;;;5182253;28;20048;-36
2023/12/16 03:38:31;;;;;;;6.70;4.50;;;4.80;99.90;;;;;;5193597;28;20344;-36
2023/12/16 03:41:06;;;;;;;6.38;4.88;;;4.80;99.90;;;;;;5197271;28;20043;-36
2023/12/16 03:43:40;;;;;;;6.85;4.80;;;4.80;99.90;;;;;;5189970;28;20041;-36
2023/12/16 03:46:11;;;;;;;5.80;4.18;;;4.80;99.90;;;;;;5186601;28;20376;-36
2023/12/16 03:48:44;;;;;;;6.07;4.30;;;4.80;99.90;;;;;;5199440;28;20127;-36
2023/12/16 03:51:16;;;;;;;6.78;4.25;;;4.90;98.00;;;;;;5198351;28;20080;-36
2023/12/16 03:53:52;;;;;;;9.60;5.22;;;4.90;89.10;;;;;;5197132;28;20040;-36
2023/12/16 03:56:30;;;;;;;6.78;4.78;;;4.90;90.00;;;;;;5185259;28;20037;-36
2023/12/16 03:59:06;;;;;;;5.82;4.35;;;4.90;52.30;;;;;;5177653;28;20432;-35
2023/12/16 04:01:50;;;;;;;6.18;4.38;;;5.00;45.40;;;;;;5194064;28;20022;-38
2023/12/16 04:04:26;;;;;;;6.22;4.70;;;5.00;26.50;;;;;;5200082;28;20059;-36
2023/12/16 04:07:04;;;;;;;7.00;4.57;;;5.00;27.70;;;;;;5199319;28;20021;-33
2023/12/16 04:09:39;;;;;;;5.75;4.05;;;5.00;13.30;;;;;;5196191;28;20025;-36
2023/12/16 04:12:13;;;;;;;7.47;4.60;;;5.00;13.90;;;;;;5203631;28;20043;-34
2023/12/16 04:14:44;;;;;;;8.07;4.72;;;5.00;1.00;;;;;;5177170;28;20025;-35
2023/12/16 04:17:18;;;;;;;8.30;4.82;;;4.90;1.00;;;;;;5180362;28;20040;-38
2023/12/16 04:19:53;;;;;;;;;;;4.90;1.00;;;;;;5198616;28;20052;-35
2023/12/16 04:22:24;;;;;;;6.93;4.65;;;4.90;8.50;;;;;;5189113;28;20249;-37
2023/12/16 04:24:58;;;;;;;7.72;5.07;;;4.90;15.80;;;;;;5173496;28;20036;-35
2023/12/16 04:27:35;;;;;;;7.85;4.85;;;4.90;14.70;;;;;;5199962;28;20045;-35
2023/12/16 04:30:11;;;;;;;7.03;5.13;;;4.80;41.90;;;;;;5195114;28;20025;-35
2023/12/16 04:32:44;;;;;;;7.97;4.82;;;4.80;74.10;;;;;;5170018;28;20225;-35
2023/12/16 04:35:16;;;;;;;7.25;5.13;;;4.80;99.90;;;;;;5186279;28;20040;-35
2023/12/16 04:37:50;;;;;;;8.63;5.45;;;4.80;99.90;;;;;;5197505;28;20087;-35
2023/12/16 04:40:21;;;;;;;8.38;5.22;;;4.70;99.90;;;;;;5186374;28;20033;-35
2023/12/16 04:42:52;;;;;;;10.25;4.75;;;4.70;99.90;;;;;;5193274;28;20041;-34
2023/12/16 04:45:24;;;;;;;7.30;4.93;;;4.70;99.90;;;;;;5195475;28;20462;-35
2023/12/16 04:47:55;;;;;;;9.43;5.90;;;4.60;99.90;;;;;;5193122;28;20030;-36
2023/12/16 04:50:26;;;;;;;9.75;5.97;;;4.50;99.90;;;;;;5195258;28;20084;-34
2023/12/16 04:52:57;;;;;;;8.98;5.88;;;4.50;99.90;;;;;;5192414;28;20432;-35
2023/12/16 04:55:31;;;;;;;10.10;5.75;;;4.40;99.90;;;;;;5196212;28;20123;-34
2023/12/16 04:58:05;;;;;;;9.05;5.75;;;4.30;1.00;;;;;;5191589;28;20033;-34
2023/12/16 05:00:36;;;;;;;7.82;5.32;;;4.30;1.00;;;;;;5191673;28;20043;-35
2023/12/16 05:03:12;;;;;;;8.63;4.75;;;4.30;1.00;;;;;;5181589;28;20440;-35
2023/12/16 05:05:46;;;;;;;8.55;5.13;;;4.30;1.00;;;;;;5197281;28;20029;-35
2023/12/16 05:08:19;;;;;;;9.18;5.32;;;4.30;1.00;;;;;;5196518;28;20029;-35
2023/12/16 05:10:51;;;;;;;8.38;5.65;;;4.30;1.00;;;;;;5195255;28;20076;-35
2023/12/16 05:13:25;;;;;;;7.88;5.32;;;4.30;1.00;;;;;;5180617;28;20188;-35
2023/12/16 05:16:01;;;;;;;6.63;5.00;;;4.30;1.00;;;;;;5176664;28;20064;-35
2023/12/16 05:18:34;;;;;;;10.13;5.18;;;4.20;1.00;;;;;;5180080;28;20209;-34
2023/12/16 05:21:06;;;;;;;6.60;5.00;;;4.20;1.00;;;;;;5190342;28;20029;-34
2023/12/16 05:23:40;;;;;;;11.75;6.00;;;4.20;1.00;;;;;;5195524;28;20275;-35
2023/12/16 05:26:13;;;;;;;9.05;5.53;;;4.30;1.00;;;;;;5183672;28;20048;-33
2023/12/16 05:28:47;;;;;;;7.38;4.65;;;4.40;99.90;;;;;;5189629;28;20033;-33
2023/12/16 05:31:19;;;;;;;8.95;6.03;;;4.50;99.90;;;;;;5189787;28;20326;-33
2023/12/16 05:33:50;;;;;;;7.53;4.75;;;4.60;99.90;;;;;;5189295;28;20025;-33
2023/12/16 05:36:24;;;;;;;8.07;5.25;;;4.70;99.90;;;;;;5188498;28;20344;-34
2023/12/16 05:38:55;;;;;;;8.63;5.65;;;4.70;99.90;;;;;;5188073;28;20025;-35
2023/12/16 05:41:28;;;;;;;9.38;5.03;;;4.80;91.00;;;;;;5161575;28;20041;-35
2023/12/16 05:44:02;;;;;;;7.77;5.23;;;4.80;56.90;;;;;;5196383;28;20084;-35
2023/12/16 05:46:33;;;;;;;10.77;5.70;;;4.80;41.90;;;;;;5180751;28;21115;-37
2023/12/16 05:49:08;;;;;;;8.77;5.65;;;4.80;78.80;;;;;;5196125;28;20547;-35
2023/12/16 05:51:43;;;;;;;7.50;4.75;;;4.90;16.50;;;;;;5196891;28;20018;-35
2023/12/16 05:54:16;;;;;;;7.97;5.03;;;4.90;1.00;;;;;;5197118;28;20034;-35
2023/12/16 05:56:47;;;;;;;9.23;5.73;;;4.90;1.00;;;;;;5180520;28;20033;-35
2023/12/16 05:59:21;;;;;;;7.82;4.85;;;4.90;1.00;;;;;;5178918;28;20150;-34
2023/12/16 06:01:52;;;;;;;7.13;4.80;;;4.90;1.00;;;;;;5187278;28;20030;-34
2023/12/16 06:04:26;;;;;;;7.03;5.07;;;4.90;1.00;;;;;;5193133;28;20029;-34
2023/12/16 06:07:00;;;;;;;7.68;5.18;;;5.00;1.00;;;;;;5184226;28;20030;-34
2023/12/16 06:09:33;;;;;;;10.38;6.03;;;5.00;1.00;;;;;;5181344;28;20187;-34
2023/12/16 06:12:05;;;;;;;8.38;4.97;;;5.00;1.00;;;;;;5190705;28;20033;-35
2023/12/16 06:14:41;;;;;;;8.05;5.60;;;5.10;1.00;;;;;;5198179;28;20045;-33
2023/12/16 06:17:15;;;;;;;8.60;5.90;;;5.00;1.00;;;;;;5191650;28;20531;-33
2023/12/16 06:19:46;;;;;;;11.63;5.90;;;5.10;1.00;;;;;;5193473;28;20017;-33
2023/12/16 06:22:20;;;;;;;8.82;5.50;;;5.00;1.00;;;;;;5196319;28;20335;-35
2023/12/16 06:24:53;;;;;;;8.33;5.37;;;5.00;1.00;;;;;;5194599;28;20059;-33
2023/12/16 06:27:24;;;;;;;15.53;8.97;;;5.00;1.00;;;;;;5189749;28;20052;-33
2023/12/16 06:29:58;;;;;;;11.45;6.18;;;5.00;1.00;;;;;;5187997;28;20518;-35
2023/12/16 06:32:31;;;;;;;7.70;4.60;;;5.00;1.00;;;;;;5188029;28;20242;-35
2023/12/16 06:35:08;;;;;;;10.43;6.43;;;5.00;1.00;;;;;;5192013;28;20041;-35
2023/12/16 06:37:39;;;;;;;10.77;5.65;;;5.00;1.00;;;;;;5183710;28;20136;-35
2023/12/16 06:40:13;;;;;;;8.50;5.22;;;5.00;1.00;;;;;;5192859;28;20025;-33
2023/12/16 06:42:46;;;;;;;7.07;5.60;;;5.00;1.00;;;;;;5189807;28;20040;-33
2023/12/16 06:45:18;;;;;;;7.57;5.50;;;5.00;1.00;;;;;;5186966;28;20044;-39
2023/12/16 06:47:49;;;;;;;8.15;4.78;;;5.10;1.00;;;;;;5192913;28;20036;-33
2023/12/16 06:50:21;;;;;;;6.85;4.50;;;5.10;1.00;;;;;;5192230;28;20030;-33
2023/12/16 06:52:52;;;;;;;7.82;5.18;;;5.20;1.00;;;;;;5194732;28;20267;-35
2023/12/16 06:55:23;;;;;;;7.10;4.95;;;5.20;1.00;;;;;;5205507;28;20032;-33
2023/12/16 06:57:55;;;;;;;8.48;5.35;;;5.20;1.00;;;;;;5173468;28;21173;-33
2023/12/16 07:00:26;;;;;;;8.48;5.30;;;5.20;1.00;;;;;;5189898;28;20043;-33
2023/12/16 07:03:00;;;;;;;7.35;4.90;;;5.20;1.00;;;;;;5193093;28;20233;-35
2023/12/16 07:05:34;;;;;;;9.63;5.38;;;5.20;1.00;;;;;;5187385;28;20305;-35
2023/12/16 07:08:08;;;;;;;;;;;5.30;1.00;;;;;;5185101;28;20179;-35
2023/12/16 07:10:42;;;;;;;7.90;4.75;;;5.20;1.00;;;;;;5197082;28;20094;-34
2023/12/16 07:13:15;;;;;;;8.23;5.05;;;5.30;1.00;;;;;;5193829;28;20059;-34
2023/12/16 07:15:48;;;;;;;11.45;4.88;;;5.30;1.00;;;;;;5191676;28;20033;-34
2023/12/16 07:18:22;;;;;;;8.07;5.10;;;5.30;1.00;;;;;;5180750;28;21191;-34
2023/12/16 07:20:56;;;;;;;6.70;4.20;;;5.30;1.00;;;;;;5197031;28;20039;-35
2023/12/16 07:23:33;;;;;;;6.55;4.90;;;5.40;1.00;;;;;;5197893;28;20033;-35
2023/12/16 07:26:04;;;;;;;7.38;4.80;;;5.40;1.00;;;;;;5196268;28;20044;-35
2023/12/16 07:28:35;;;;;;;7.90;4.97;;;5.40;1.00;;;;;;5184923;28;20037;-34
2023/12/16 07:31:07;;;;;;;6.15;3.70;;;5.40;1.00;;;;;;5184388;28;20335;-34
2023/12/16 07:33:38;;;;;;;6.80;4.10;;;5.50;1.00;;;;;;5194926;28;20034;-35
2023/12/16 07:36:10;;;;;;;8.90;4.70;;;5.50;1.00;;;;;;5187818;28;20033;-35
2023/12/16 07:38:45;;;;;;;6.55;4.40;;;5.50;1.00;;;;;;5196508;28;20021;-35
2023/12/16 07:41:16;;;;;;;6.68;3.92;;;5.50;1.00;;;;;;5199586;28;20021;-35
2023/12/16 07:43:52;;;;;;;11.82;4.63;;;5.50;1.00;;;;;;5186359;28;20306;-37
2023/12/16 07:46:33;;;;;;;6.97;4.45;;;5.60;1.00;;;;;;5190870;28;20039;-34
2023/12/16 07:49:12;;;;;;;7.40;3.47;;;5.70;1.00;;;;;;5186550;28;20029;-34
2023/12/16 07:51:43;;;;;;;7.05;3.38;;;5.70;1.00;;;;;;5197901;28;20025;-34
2023/12/16 07:54:15;;;;;;;5.25;3.75;;;5.70;1.00;;;;;;5197822;28;20213;-34
2023/12/16 07:56:46;;;;;;;5.85;3.85;;;5.70;1.00;;;;;;5190215;28;20225;-34
2023/12/16 07:59:17;;;;;;;6.00;3.22;;;5.80;1.00;;;;;;5204303;28;20292;-34
2023/12/16 08:01:50;;;;;;;5.65;3.97;;;5.80;1.00;;;;;;5198192;28;20029;-33
2023/12/16 08:04:24;;;;;;;8.63;4.30;;;5.80;1.00;;;;;;5186054;28;20239;-34
2023/12/16 08:06:55;;;;;;;7.72;4.00;;;5.80;1.00;;;;;;5184368;28;20476;-34
2023/12/16 08:09:29;;;;;;;7.32;4.30;;;5.80;1.00;;;;;;5168733;28;20029;-34
2023/12/16 08:12:01;;;;;;;5.93;3.95;;;5.90;1.00;;;;;;5189750;28;20445;-34
2023/12/16 08:14:32;;;;;;;6.00;3.90;;;5.90;1.00;;;;;;5197884;28;20034;-34
2023/12/16 08:17:03;;;;;;;5.40;3.65;;;5.90;1.00;;;;;;5179330;28;20040;-34
2023/12/16 08:19:37;;;;;;;6.18;3.33;;;5.90;1.00;;;;;;5181158;28;20044;-35
2023/12/16 08:22:11;;;;;;;5.07;3.20;;;6.00;1.00;;;;;;5178680;28;20048;-35
2023/12/16 08:24:48;;;;;;;5.28;3.53;;;6.00;1.00;;;;;;5180706;28;20038;-36
2023/12/16 08:27:32;;;;;;;5.20;3.50;;;6.10;1.00;;;;;;5186721;28;20025;-35
2023/12/16 08:30:07;;;;;;;5.15;3.42;;;6.10;1.00;;;;;;5196480;28;20029;-35
2023/12/16 08:32:38;;;;;;;7.03;3.80;;;6.10;1.00;;;;;;5189399;28;20025;-35
2023/12/16 08:35:15;;;;;;;5.68;3.80;;;6.20;1.00;;;;;;5191720;28;20044;-34
2023/12/16 08:37:46;;;;;;;5.75;3.08;;;6.20;1.00;;;;;;5195409;28;20332;-34
2023/12/16 08:40:18;;;;;;;3.97;3.00;;;6.20;1.00;;;;;;5195397;28;20229;-34
2023/12/16 08:42:49;;;;;;;4.03;3.08;;;6.30;1.00;;;;;;5191681;28;20446;-34
2023/12/16 08:45:20;;;;;;;3.22;2.72;;;6.20;1.00;;;;;;5189041;28;20040;-35
2023/12/16 08:47:57;;;;;;;4.97;3.58;;;6.30;1.00;;;;;;5178702;28;20318;-34
2023/12/16 08:50:28;;;;;;;6.45;4.10;;;6.30;1.00;;;;;;5189291;28;20029;-34
2023/12/16 08:52:59;;;;;;;5.32;3.13;;;6.30;1.00;;;;;;5186007;28;20033;-34
2023/12/16 08:55:31;;;;;;;10.02;3.78;;;6.30;1.00;;;;;;5182322;28;20267;-34
2023/12/16 08:58:05;;;;;;;4.20;3.33;;;6.30;1.00;;;;;;5191782;28;20254;-34
2023/12/16 09:00:36;;;;;;;;;;;6.40;1.00;;;;;;5176869;28;20447;-35
2023/12/16 09:03:07;;;;;;;4.35;3.72;;;6.40;1.00;;;;;;5186160;28;21242;-35
2023/12/16 09:05:41;;;;;;;5.43;3.30;;;6.50;1.00;;;;;;5177185;28;20459;-35
2023/12/16 09:08:13;;;;;;;4.57;3.47;;;6.50;1.00;;;;;;5203799;28;21374;-34
2023/12/16 09:10:44;;;;;;;6.20;3.30;;;6.50;99.90;;;;;;5186016;28;20238;-34
2023/12/16 09:13:15;;;;;;;8.25;2.90;;;6.50;99.90;;;;;;5187845;28;20045;-34
2023/12/16 09:15:51;;;;;;;5.60;3.95;;;6.60;1.00;;;;;;5180213;28;20348;-34
2023/12/16 09:18:22;;;;;;;6.53;3.97;;;6.60;1.00;;;;;;5193940;28;20369;-35
2023/12/16 09:20:55;;;;;;;7.38;3.65;;;6.60;1.00;;;;;;5191443;28;20467;-33
2023/12/16 09:23:31;;;;;;;8.77;3.75;;;6.60;1.00;;;;;;5187433;28;20040;-34
2023/12/16 09:26:05;;;;;;;8.40;3.55;;;6.70;1.00;;;;;;5179815;28;20048;-35
2023/12/16 09:28:40;;;;;;;4.40;3.25;;;6.70;99.90;;;;;;5197048;28;20017;-35
2023/12/16 09:31:12;;;;;;;5.03;3.42;;;6.80;99.90;;;;;;5188947;28;20034;-35
2023/12/16 09:33:48;;;;;;;3.97;2.95;;;6.80;99.90;;;;;;5186214;28;20039;-35
2023/12/16 09:36:26;;;;;;;3.40;2.55;;;6.80;99.90;;;;;;5192137;28;20018;-35
2023/12/16 09:38:58;;;;;;;6.40;3.45;;;6.80;99.90;;;;;;5166465;28;20041;-35
2023/12/16 09:41:31;;;;;;;5.57;3.25;;;6.90;99.90;;;;;;5187964;28;20318;-35
2023/12/16 09:44:03;;;;;;;5.78;3.38;;;7.00;99.90;;;;;;5181331;28;20495;-35
2023/12/16 09:46:39;;;;;;;6.25;3.53;;;7.00;99.90;;;;;;5178991;28;20360;-33
2023/12/16 09:49:16;;;;;;;4.70;3.15;;;7.00;99.90;;;;;;5189783;28;20025;-35
2023/12/16 09:51:53;;;;;;;5.05;3.38;;;7.10;99.90;;;;;;5198245;28;20034;-34
2023/12/16 09:54:27;;;;;;;4.78;3.60;;;7.20;99.90;;;;;;5179884;28;20036;-34
2023/12/16 09:57:00;;;;;;;6.07;3.40;;;7.10;99.90;;;;;;5189508;28;20040;-34
2023/12/16 09:59:31;;;;;;;7.50;2.83;;;7.20;99.90;;;;;;5198528;28;20297;-34
2023/12/16 10:02:15;;;;;;;3.97;3.10;;;7.30;1.00;;;;;;5183285;28;20057;-34
2023/12/16 10:04:48;;;;;;;5.20;3.17;;;7.50;1.00;;;;;;5182071;28;20305;-34
2023/12/16 10:07:19;;;;;;;6.55;3.88;;;7.50;99.90;;;;;;5192023;28;20025;-34
2023/12/16 10:09:50;;;;;;;5.88;3.50;;;7.60;99.90;;;;;;5201055;28;20033;-34
2023/12/16 10:12:33;;;;;;;6.25;4.05;;;7.60;99.90;;;;;;5194811;28;20167;-34
2023/12/16 10:15:10;;;;;;;7.50;4.25;;;7.70;99.90;;;;;;5195936;28;20453;-34
2023/12/16 10:17:44;;;;;;;5.05;3.50;;;7.70;99.90;;;;;;5185699;28;20044;-34
2023/12/16 10:20:15;;;;;;;5.20;3.60;;;7.70;99.90;;;;;;5189076;28;20040;-34
2023/12/16 10:22:49;;;;;;;5.53;3.75;;;8.00;99.90;;;;;;5198349;28;20367;-34
2023/12/16 10:25:21;;;;;;;6.32;3.78;;;8.00;99.90;;;;;;5198427;28;20037;-34
2023/12/16 10:28:00;;;;;;;7.05;4.43;;;8.00;99.90;;;;;;5180323;28;20045;-34
2023/12/16 10:30:34;;;;;;;9.80;5.53;;;7.90;99.90;;;;;;5182454;28;20058;-34
2023/12/16 10:33:10;;;;;;;;;;;7.90;99.90;;;;;;5199309;28;20013;-35
2023/12/16 10:35:46;;;;;;;15.80;5.72;;;8.00;99.90;;;;;;5197610;28;19920;-35
2023/12/16 10:38:17;;;;;;;15.48;9.23;;;8.10;99.90;;;;;;5195739;28;20025;-35
2023/12/16 10:40:52;;;;;;;5.75;3.90;;;8.10;99.90;;;;;;5200857;28;20059;-34
2023/12/16 10:43:23;;;;;;;7.72;5.07;;;8.50;99.90;;;;;;5198341;28;20405;-34
2023/12/16 10:45:55;;;;;;;7.03;3.72;;;9.10;99.90;;;;;;5198429;28;20044;-34
2023/12/16 10:48:30;;;;;;;5.63;3.40;;;8.90;99.90;;;;;;5187653;28;20249;-37
2023/12/16 10:51:05;;;;;;;7.80;4.32;;;8.70;99.90;;;;;;5188623;28;20041;-34
2023/12/16 10:53:41;;;;;;;;;;;8.60;99.90;;;;;;5199929;28;20025;-34
2023/12/16 10:56:28;;;;;;;4.78;3.75;;;8.80;99.90;;;;;;5192351;28;20487;-34
2023/12/16 10:59:05;;;;;;;5.40;3.30;;;8.70;99.90;;;;;;5189450;28;20049;-34
2023/12/16 11:01:47;;;;;;;5.15;2.88;;;8.40;99.90;;;;;;5189152;28;20047;-35
2023/12/16 11:04:28;;;;;;;5.57;3.90;;;8.50;99.90;;;;;;5179926;28;20464;-34
2023/12/16 11:07:13;;;;;;;5.45;3.47;;;9.10;99.90;;;;;;5177834;28;20026;-34
2023/12/16 11:09:44;;;;;;;5.35;3.50;;;9.70;99.90;;;;;;5181569;28;20240;-34
2023/12/16 11:12:18;;;;;;;4.20;2.88;;;10.20;99.90;;;;;;5184561;28;20037;-34
2023/12/16 11:14:55;;;;;;;6.28;4.00;;;10.70;99.90;;;;;;5198584;28;20029;-34
2023/12/16 11:17:35;;;;;;;8.68;4.20;;;10.90;99.90;;;;;;5188227;28;20052;-33
2023/12/16 11:20:08;;;;;;;5.65;4.00;;;10.40;1.00;;;;;;5193009;28;20033;-34
2023/12/16 11:22:51;;;;;;;5.43;4.05;;;10.00;99.90;;;;;;5195348;28;20131;-33
2023/12/16 11:25:26;;;;;;;5.55;3.53;;;10.10;20.60;;;;;;5177211;28;20030;-33
2023/12/16 11:28:04;;;;;;;8.35;3.42;;;10.60;92.80;;;;;;5185388;28;20039;-33
2023/12/16 11:30:39;;;;;;;5.10;3.25;;;11.20;99.90;;;;;;5183949;28;20033;-35
2023/12/16 11:33:14;;;;;;;8.65;3.20;;;11.10;66.00;;;;;;5204695;28;20028;-33
2023/12/16 11:35:50;;;;;;;;;;;10.80;1.00;;;;;;5201210;28;20209;-34
2023/12/16 11:38:42;;;;;;;4.20;3.10;;;11.30;1.00;;;;;;5228083;28;19913;-33
2023/12/16 11:41:35;;;;;;;5.30;3.13;;;11.00;1.00;;;;;;5192610;28;20300;-32
2023/12/16 11:44:11;;;;;;;6.40;3.58;;;10.80;99.90;;;;;;5205272;28;20060;-33
2023/12/16 11:46:48;;;;;;;5.10;3.58;;;11.10;99.90;;;;;;5208267;28;20305;-34
2023/12/16 11:49:23;;;;;;;5.32;3.17;;;11.30;99.90;;;;;;5188838;28;20309;-34
2023/12/16 11:51:54;;;;;;;4.55;3.28;;;11.50;99.90;;;;;;5211435;28;20306;-34
2023/12/16 11:54:25;;;;;;;5.70;3.20;;;11.80;99.90;;;;;;5214743;28;20037;-34
2023/12/16 11:56:58;;;;;;;4.55;3.10;;;12.40;99.90;;;;;;5210454;28;20063;-34
2023/12/16 11:59:30;;;;;;;4.13;3.38;;;12.50;1.00;;;;;;5211057;28;20056;-34
2023/12/16 12:02:05;;;;;;;4.75;2.70;;;11.80;1.00;;;;;;5215485;28;20025;-34
2023/12/16 12:04:37;;;;;;;6.32;3.42;;;11.90;99.90;;;;;;5215326;28;20124;-34
2023/12/16 12:07:10;;;;;;;12.80;3.45;;;11.90;99.90;;;;;;5218718;28;20040;-34
2023/12/16 12:09:43;;;;;;;6.43;3.47;;;12.30;1.00;;;;;;5214156;28;20035;-34
2023/12/16 12:12:16;;;;;;;5.53;3.08;;;12.00;1.00;;;;;;5219592;28;20040;-34
2023/12/16 12:14:48;;;;;;;5.65;3.05;;;11.80;1.00;;;;;;5223404;28;20025;-33
2023/12/16 12:17:26;;;;;;;4.13;2.70;;;12.00;1.00;;;;;;5198583;28;20069;-33
2023/12/16 12:20:01;;;;;;;3.90;2.65;;;11.70;1.00;;;;;;5210722;28;20453;-33
2023/12/16 12:22:35;;;;;;;5.40;2.42;;;11.00;1.00;;;;;;5220326;28;20035;-34
2023/12/16 12:25:09;;;;;;;4.40;3.03;;;11.50;1.00;;;;;;5222603;28;20326;-33
2023/12/16 12:27:43;;;;;;;5.30;3.22;;;11.10;1.00;;;;;;5221798;28;20041;-33
2023/12/16 12:30:18;;;;;;;5.63;3.42;;;11.20;1.00;;;;;;5206343;28;20033;-34
2023/12/16 12:32:52;;;;;;;5.07;3.35;;;11.40;1.00;;;;;;5219586;28;20021;-34
2023/12/16 12:35:25;;;;;;;3.60;3.17;;;11.90;1.00;;;;;;5212813;28;20024;-34
2023/12/16 12:37:59;;;;;;;4.40;2.92;;;12.30;1.00;;;;;;5210843;28;20446;-34
2023/12/16 12:40:31;;;;;;;4.38;3.28;;;12.50;50.10;;;;;;5208007;28;20371;-34
2023/12/16 12:43:09;;;;;;;5.05;2.80;;;12.10;20.30;;;;;;5206653;28;20213;-34
2023/12/16 12:45:41;;;;;;;4.35;3.03;;;12.50;99.90;;;;;;5210076;28;20040;-34
2023/12/16 12:48:14;;;;;;;6.15;4.03;;;12.40;21.90;;;;;;5198752;28;20337;-33
2023/12/16 12:50:49;;;;;;;4.38;3.50;;;12.10;99.90;;;;;;5200393;28;20199;-33
2023/12/16 12:53:21;;;;;;;4.88;2.67;;;11.80;99.90;;;;;;5204516;28;20121;-34
2023/12/16 12:55:53;;;;;;;6.63;3.10;;;11.60;99.90;;;;;;5226903;28;20039;-34
2023/12/16 12:58:25;;;;;;;6.38;3.75;;;11.70;99.90;;;;;;5180610;28;20055;-33
2023/12/16 13:00:59;;;;;;;5.78;3.30;;;11.90;99.90;;;;;;5211640;28;20104;-33
2023/12/16 13:03:32;;;;;;;6.00;3.50;;;11.60;99.90;;;;;;5225761;28;20035;-35
2023/12/16 13:06:06;;;;;;;5.50;3.78;;;11.10;99.90;;;;;;5213631;28;20036;-34
2023/12/16 13:08:39;;;;;;;4.45;3.33;;;11.10;99.90;;;;;;5214366;28;20017;-34
2023/12/16 13:11:10;;;;;;;5.55;4.35;;;10.60;99.90;;;;;;5231989;28;20048;-35
2023/12/16 13:13:42;;;;;;;5.93;3.72;;;10.70;99.90;;;;;;5222684;28;20055;-34
2023/12/16 13:16:16;;;;;;;4.65;3.20;;;11.10;99.90;;;;;;5212836;28;20241;-34
2023/12/16 13:18:52;;;;;;;5.57;3.78;;;10.70;99.90;;;;;;5210024;28;20035;-33
2023/12/16 13:21:23;;;;;;;6.53;3.85;;;10.50;99.70;;;;;;5195735;28;20043;-33
2023/12/16 13:23:54;;;;;;;7.53;4.22;;;10.40;99.90;;;;;;5208087;28;20210;-33
2023/12/16 13:26:26;;;;;;;4.93;3.55;;;9.90;1.00;;;;;;5218876;28;20047;-33
2023/12/16 13:28:57;;;;;;;6.03;3.60;;;9.70;1.00;;;;;;5224534;28;20207;-33
2023/12/16 13:31:28;;;;;;;5.25;3.75;;;9.40;1.00;;;;;;5223693;28;20504;-33
2023/12/16 13:33:59;;;;;;;7.70;3.65;;;9.10;1.00;;;;;;5217223;28;20044;-34